Time;durP1;ratioP1;P1;durP2;ratioP2;P2;SDS_P1;SDS_P2;PMS_P1;PMS_P2;Temp;Humidity;BMP_temperature;BMP_pressure;BME280_temperature;BME280_humidity;BME280_pressure;Samples;Min_cycle;Max_cycle;Signal;HPM_P1;HPM_P2
2022/03/28 00:01:13;;;;;;;;;;;6.20;99.90;;;;;;5092382;28;19966;-69
2022/03/28 00:03:38;;;;;;;;;;;6.20;99.90;;;;;;5091901;28;20366;-68
2022/03/28 00:06:04;;;;;;;;;;;6.20;99.90;;;;;;5092288;28;19923;-68
2022/03/28 00:08:30;;;;;;;;;;;6.20;99.90;;;;;;5091801;28;19983;-68
2022/03/28 00:10:56;;;;;;;;;;;6.20;99.90;;;;;;5092243;28;19920;-68
2022/03/28 00:13:21;;;;;;;;;;;6.30;99.90;;;;;;5074105;28;20415;-68
2022/03/28 00:15:47;;;;;;;;;;;6.30;99.90;;;;;;5092103;28;20014;-68
2022/03/28 00:18:12;;;;;;;;;;;6.30;99.90;;;;;;5091390;28;19916;-68
2022/03/28 00:20:38;;;;;;;;;;;6.30;99.90;;;;;;5091550;28;19922;-69
2022/03/28 00:23:04;;;;;;;;;;;6.30;99.90;;;;;;5091936;28;19916;-68
2022/03/28 00:25:30;;;;;;;;;;;6.40;99.90;;;;;;5090625;28;19964;-68
2022/03/28 00:27:55;;;;;;;;;;;6.40;99.90;;;;;;5091544;28;20406;-68
2022/03/28 00:30:21;;;;;;;;;;;6.40;99.90;;;;;;5091266;28;19920;-68
2022/03/28 00:32:46;;;;;;;;;;;6.40;99.90;;;;;;5091723;28;19916;-69
2022/03/28 00:35:12;;;;;;;;;;;6.30;99.90;;;;;;5091590;28;19923;-69
2022/03/28 00:37:39;;;;;;;;;;;6.30;99.90;;;;;;5091816;28;20002;-69
2022/03/28 00:40:11;;;;;;;;;;;6.30;99.90;;;;;;5091460;28;19922;-68
2022/03/28 00:42:37;;;;;;;;;;;6.30;99.90;;;;;;5091762;28;19951;-68
2022/03/28 00:45:03;;;;;;;;;;;6.30;99.90;;;;;;5091648;28;19962;-69
2022/03/28 00:47:30;;;;;;;;;;;6.30;99.90;;;;;;5091287;28;19999;-68
2022/03/28 00:49:56;;;;;;;;;;;6.30;99.90;;;;;;5090133;28;19920;-68
2022/03/28 00:52:21;;;;;;;;;;;6.20;99.90;;;;;;5091725;28;19920;-68
2022/03/28 00:54:46;;;;;;;;;;;6.20;99.90;;;;;;5091545;28;19923;-69
2022/03/28 00:57:12;;;;;;;;;;;6.20;99.90;;;;;;5091551;28;19916;-68
2022/03/28 00:59:37;;;;;;;;;;;6.20;99.90;;;;;;5089676;28;19923;-68
2022/03/28 01:02:03;;;;;;;;;;;6.20;99.90;;;;;;5091281;28;19916;-69
2022/03/28 01:04:29;;;;;;;;;;;6.20;99.90;;;;;;5091541;28;19920;-69
2022/03/28 01:06:55;;;;;;;;;;;6.20;99.90;;;;;;5091450;28;19936;-70
2022/03/28 01:09:20;;;;;;;;;;;6.20;99.90;;;;;;5091162;28;20281;-68
2022/03/28 01:11:46;;;;;;;;;;;6.20;99.90;;;;;;5091351;28;19920;-68
2022/03/28 01:14:11;;;;;;;;;;;6.20;99.90;;;;;;5091365;28;20027;-68
2022/03/28 01:19:23;;;;;;;;;;;6.10;99.90;;;;;;5091080;28;20004;-69
2022/03/28 01:21:49;;;;;;;;;;;6.20;99.90;;;;;;5091441;28;20412;-69
2022/03/28 01:24:15;;;;;;;;;;;6.20;99.90;;;;;;5091451;28;19939;-68
2022/03/28 01:26:40;;;;;;;;;;;6.20;99.90;;;;;;5091207;28;19924;-68
2022/03/28 01:29:06;;;;;;;;;;;6.20;99.90;;;;;;5091871;28;19916;-68
2022/03/28 01:31:32;;;;;;;;;;;6.20;99.90;;;;;;5095213;28;20282;-68
2022/03/28 01:33:57;;;;;;;;;;;6.20;99.90;;;;;;5095316;28;19939;-68
2022/03/28 01:36:28;;;;;;;;;;;6.30;99.90;;;;;;5095093;28;20017;-69
2022/03/28 01:38:54;;;;;;;;;;;6.30;99.90;;;;;;5094682;28;19916;-69
2022/03/28 01:41:19;;;;;;;;;;;6.20;99.90;;;;;;5094835;28;20043;-69
2022/03/28 01:43:45;;;;;;;;;;;6.20;99.90;;;;;;5094902;28;19920;-68
2022/03/28 01:46:10;;;;;;;;;;;6.30;99.90;;;;;;5094881;28;19923;-68
2022/03/28 01:48:36;;;;;;;;;;;6.30;99.90;;;;;;5094590;28;19920;-69
2022/03/28 01:51:01;;;;;;;;;;;6.30;99.90;;;;;;5094747;28;19928;-68
2022/03/28 01:53:26;;;;;;;;;;;6.30;99.90;;;;;;5094792;28;19916;-68
2022/03/28 01:55:52;;;;;;;;;;;6.30;99.90;;;;;;5094654;28;20383;-68
2022/03/28 01:58:17;;;;;;;;;;;6.30;99.90;;;;;;5093412;28;20338;-68
2022/03/28 02:00:43;;;;;;;;;;;6.30;99.90;;;;;;5094282;28;19923;-69
2022/03/28 02:03:09;;;;;;;;;;;6.40;99.90;;;;;;5095042;28;19967;-68
2022/03/28 02:05:34;;;;;;;;;;;6.30;99.90;;;;;;5096116;28;19916;-69
2022/03/28 02:08:00;;;;;;;;;;;6.20;99.90;;;;;;5095532;28;19935;-68
2022/03/28 02:10:25;;;;;;;;;;;6.30;99.90;;;;;;5095849;28;20398;-68
2022/03/28 02:12:51;;;;;;;;;;;6.20;99.90;;;;;;5098780;28;20345;-68
2022/03/28 02:15:18;;;;;;;;;;;6.20;99.90;;;;;;5096067;28;19969;-69
2022/03/28 02:17:43;;;;;;;;;;;6.20;99.90;;;;;;5094210;28;20409;-68
2022/03/28 02:20:09;;;;;;;;;;;6.20;99.90;;;;;;5093878;28;19955;-68
2022/03/28 02:22:35;;;;;;;;;;;6.10;99.90;;;;;;5094167;28;19916;-69
2022/03/28 02:25:01;;;;;;;;;;;6.10;99.90;;;;;;5094091;28;19920;-69
2022/03/28 02:27:27;;;;;;;;;;;6.20;99.90;;;;;;5092658;28;19919;-69
2022/03/28 02:29:52;;;;;;;;;;;6.20;99.90;;;;;;5093737;28;19984;-68
2022/03/28 02:32:18;;;;;;;;;;;6.10;99.90;;;;;;5094147;28;19986;-69
2022/03/28 02:34:43;;;;;;;;;;;6.20;99.90;;;;;;5093986;28;19915;-69
2022/03/28 02:37:09;;;;;;;;;;;6.10;99.90;;;;;;5093923;28;19923;-69
2022/03/28 02:39:34;;;;;;;;;;;6.10;99.90;;;;;;5091907;28;20018;-68
2022/03/28 02:42:00;;;;;;;;;;;6.10;99.90;;;;;;5093704;28;20292;-69
2022/03/28 02:44:25;;;;;;;;;;;6.20;99.90;;;;;;5093643;28;19920;-69
2022/03/28 02:46:51;;;;;;;;;;;6.20;99.90;;;;;;5093576;28;20260;-68
2022/03/28 02:49:19;;;;;;;;;;;6.10;99.90;;;;;;5093398;28;20007;-69
2022/03/28 02:51:44;;;;;;;;;;;6.10;99.90;;;;;;5093675;28;19915;-68
2022/03/28 02:54:10;;;;;;;;;;;6.00;99.90;;;;;;5093670;28;19920;-68
2022/03/28 02:56:35;;;;;;;;;;;6.10;99.90;;;;;;5093334;28;19920;-69
2022/03/28 02:59:01;;;;;;;;;;;6.10;99.90;;;;;;5093144;28;20286;-69
2022/03/28 03:01:27;;;;;;;;;;;6.10;99.90;;;;;;5093357;28;19922;-68
2022/03/28 03:03:52;;;;;;;;;;;6.10;99.90;;;;;;5093293;28;19916;-69
2022/03/28 03:06:18;;;;;;;;;;;6.10;99.90;;;;;;5093036;28;19999;-69
2022/03/28 03:08:43;;;;;;;;;;;6.20;99.90;;;;;;5092950;28;19916;-69
2022/03/28 03:11:09;;;;;;;;;;;6.20;99.90;;;;;;5093083;28;19960;-68
2022/03/28 03:13:38;;;;;;;;;;;6.20;99.90;;;;;;5093302;28;19967;-68
2022/03/28 03:16:04;;;;;;;;;;;6.20;99.90;;;;;;5093037;28;20375;-68
2022/03/28 03:18:29;;;;;;;;;;;6.10;99.90;;;;;;5094546;28;19923;-68
2022/03/28 03:20:55;;;;;;;;;;;6.20;99.90;;;;;;5096787;28;19920;-68
2022/03/28 03:23:21;;;;;;;;;;;6.10;99.90;;;;;;5096902;28;19920;-68
2022/03/28 03:25:46;;;;;;;;;;;6.10;99.90;;;;;;5097512;28;19922;-68
2022/03/28 03:28:12;;;;;;;;;;;6.20;99.90;;;;;;5096523;28;20376;-68
2022/03/28 03:30:37;;;;;;;;;;;6.10;99.90;;;;;;5094296;28;20406;-68
2022/03/28 03:33:03;;;;;;;;;;;6.20;99.90;;;;;;5095485;28;19959;-69
2022/03/28 03:35:29;;;;;;;;;;;6.20;99.90;;;;;;5092951;28;20367;-69
2022/03/28 03:37:54;;;;;;;;;;;6.10;99.90;;;;;;5092769;28;19926;-69
2022/03/28 03:40:20;;;;;;;;;;;6.20;99.90;;;;;;5092276;28;20299;-68
2022/03/28 03:42:45;;;;;;;;;;;6.20;99.90;;;;;;5092483;28;20292;-69
2022/03/28 03:45:11;;;;;;;;;;;6.20;99.90;;;;;;5092710;28;19963;-69
2022/03/28 03:47:37;;;;;;;;;;;6.20;99.90;;;;;;5090945;28;19920;-70
2022/03/28 03:50:03;;;;;;;;;;;6.20;99.90;;;;;;5092075;28;19915;-69
2022/03/28 03:52:29;;;;;;;;;;;6.20;99.90;;;;;;5091678;28;19922;-69
2022/03/28 03:54:54;;;;;;;;;;;6.10;99.90;;;;;;5092199;28;20057;-68
2022/03/28 03:57:20;;;;;;;;;;;6.10;99.90;;;;;;5091241;28;19927;-69
2022/03/28 03:59:45;;;;;;;;;;;6.10;99.90;;;;;;5090850;28;20338;-69
2022/03/28 04:02:11;;;;;;;;;;;6.10;99.90;;;;;;5092240;28;20398;-69
2022/03/28 04:04:36;;;;;;;;;;;6.10;99.90;;;;;;5092267;28;19916;-68
2022/03/28 04:07:02;;;;;;;;;;;6.10;99.90;;;;;;5092000;28;19920;-69
2022/03/28 04:09:28;;;;;;;;;;;6.10;99.90;;;;;;5091768;28;19916;-69
2022/03/28 04:11:53;;;;;;;;;;;6.10;99.90;;;;;;5091980;28;20299;-69
2022/03/28 04:14:19;;;;;;;;;;;6.10;99.90;;;;;;5092153;28;19959;-68
2022/03/28 04:16:44;;;;;;;;;;;6.20;99.90;;;;;;5092241;28;19916;-68
2022/03/28 04:19:10;;;;;;;;;;;6.10;99.90;;;;;;5090318;28;19920;-68
2022/03/28 04:21:35;;;;;;;;;;;6.10;99.90;;;;;;5090656;28;19935;-70
2022/03/28 04:24:01;;;;;;;;;;;6.20;99.90;;;;;;5091925;28;19955;-68
2022/03/28 04:26:26;;;;;;;;;;;6.20;99.90;;;;;;5091668;28;19916;-68
2022/03/28 04:28:52;;;;;;;;;;;6.10;99.90;;;;;;5091591;28;20030;-69
2022/03/28 04:31:17;;;;;;;;;;;6.10;99.90;;;;;;5091703;28;19916;-69
2022/03/28 04:33:43;;;;;;;;;;;6.10;99.90;;;;;;5091791;28;19923;-69
2022/03/28 04:36:08;;;;;;;;;;;6.10;99.90;;;;;;5091696;28;20295;-69
2022/03/28 04:38:33;;;;;;;;;;;6.10;99.90;;;;;;5091352;28;19938;-68
2022/03/28 04:40:59;;;;;;;;;;;6.10;99.90;;;;;;5091591;28;19927;-68
2022/03/28 04:43:24;;;;;;;;;;;6.10;99.90;;;;;;5091806;28;19959;-68
2022/03/28 04:45:50;;;;;;;;;;;6.10;99.90;;;;;;5091550;28;19931;-69
2022/03/28 04:48:15;;;;;;;;;;;6.10;99.90;;;;;;5091661;28;19946;-68
2022/03/28 04:50:41;;;;;;;;;;;6.10;99.90;;;;;;5091167;28;20011;-68
2022/03/28 04:53:06;;;;;;;;;;;6.00;99.90;;;;;;5091493;28;19923;-69
2022/03/28 04:55:32;;;;;;;;;;;6.00;99.90;;;;;;5090417;28;19938;-68
2022/03/28 04:57:58;;;;;;;;;;;6.10;99.90;;;;;;5091654;28;20064;-68
2022/03/28 05:00:23;;;;;;;;;;;6.00;99.90;;;;;;5091356;28;19939;-68
2022/03/28 05:02:49;;;;;;;;;;;6.00;99.90;;;;;;5092199;28;19916;-68
2022/03/28 05:05:14;;;;;;;;;;;5.90;99.90;;;;;;5095740;28;19990;-69
2022/03/28 05:07:40;;;;;;;;;;;5.90;99.90;;;;;;5095493;28;19931;-68
2022/03/28 05:10:06;;;;;;;;;;;5.90;99.90;;;;;;5077210;28;20011;-68
2022/03/28 05:12:32;;;;;;;;;;;5.90;99.90;;;;;;5095463;28;20007;-69
2022/03/28 05:14:58;;;;;;;;;;;6.00;99.90;;;;;;5095611;28;20407;-68
2022/03/28 05:17:24;;;;;;;;;;;5.90;99.90;;;;;;5095507;28;19939;-68
2022/03/28 05:19:50;;;;;;;;;;;5.90;99.90;;;;;;5095053;28;19923;-68
2022/03/28 05:22:16;;;;;;;;;;;5.90;99.90;;;;;;5095264;28;19916;-68
2022/03/28 05:24:42;;;;;;;;;;;5.90;99.90;;;;;;5094868;28;20002;-68
2022/03/28 05:27:07;;;;;;;;;;;5.80;99.90;;;;;;5093823;28;20122;-69
2022/03/28 05:29:33;;;;;;;;;;;5.90;99.90;;;;;;5091415;28;19916;-69
2022/03/28 05:31:58;;;;;;;;;;;5.90;99.90;;;;;;5092157;28;20472;-69
2022/03/28 05:34:24;;;;;;;;;;;5.90;99.90;;;;;;5092245;28;20003;-69
2022/03/28 05:36:49;;;;;;;;;;;5.90;99.90;;;;;;5093306;28;19974;-69
2022/03/28 05:39:15;;;;;;;;;;;5.90;99.90;;;;;;5094539;28;19920;-68
2022/03/28 05:41:41;;;;;;;;;;;5.90;99.90;;;;;;5094683;28;19973;-68
2022/03/28 05:44:06;;;;;;;;;;;5.90;99.90;;;;;;5093683;28;19916;-68
2022/03/28 05:46:32;;;;;;;;;;;5.90;99.90;;;;;;5094105;28;20363;-69
2022/03/28 05:48:57;;;;;;;;;;;5.90;99.90;;;;;;5094186;28;19916;-69
2022/03/28 05:51:23;;;;;;;;;;;5.90;99.90;;;;;;5093495;28;19916;-68
2022/03/28 05:53:49;;;;;;;;;;;5.80;99.90;;;;;;5094617;28;19939;-68
2022/03/28 05:56:14;;;;;;;;;;;5.80;99.90;;;;;;5094733;28;19916;-69
2022/03/28 05:58:40;;;;;;;;;;;5.80;99.90;;;;;;5094460;28;20044;-68
2022/03/28 06:01:05;;;;;;;;;;;5.80;99.90;;;;;;5094543;28;19927;-68
2022/03/28 06:03:30;;;;;;;;;;;5.80;99.90;;;;;;5094530;28;19973;-68
2022/03/28 06:05:56;;;;;;;;;;;5.80;99.90;;;;;;5094402;28;19915;-69
2022/03/28 06:08:22;;;;;;;;;;;5.80;99.90;;;;;;5096778;28;20280;-67
2022/03/28 06:10:47;;;;;;;;;;;5.80;99.90;;;;;;5094230;28;19955;-67
2022/03/28 06:13:14;;;;;;;;;;;5.80;99.90;;;;;;5094494;28;19923;-68
2022/03/28 06:15:39;;;;;;;;;;;5.80;99.90;;;;;;5091555;28;19920;-68
2022/03/28 06:18:05;;;;;;;;;;;5.90;99.90;;;;;;5110496;27;19927;-68
2022/03/28 06:20:32;;;;;;;;;;;5.90;99.90;;;;;;5117821;27;19968;-68
2022/03/28 06:22:58;;;;;;;;;;;5.80;99.90;;;;;;5092320;28;19916;-68
2022/03/28 06:25:23;;;;;;;;;;;5.90;99.90;;;;;;5093270;28;19923;-68
2022/03/28 06:27:49;;;;;;;;;;;5.90;99.90;;;;;;5092315;28;19984;-67
2022/03/28 06:30:14;;;;;;;;;;;5.80;99.90;;;;;;5093859;28;20359;-68
2022/03/28 06:32:43;;;;;;;;;;;5.90;99.90;;;;;;5094016;28;20018;-67
2022/03/28 06:35:09;;;;;;;;;;;5.90;99.90;;;;;;5092940;28;19923;-68
2022/03/28 06:37:34;;;;;;;;;;;5.90;99.90;;;;;;5093691;28;19916;-67
2022/03/28 06:40:00;;;;;;;;;;;5.80;99.90;;;;;;5093648;28;19925;-67
2022/03/28 06:42:26;;;;;;;;;;;5.90;99.90;;;;;;5093896;28;19919;-68
2022/03/28 06:44:52;;;;;;;;;;;5.80;99.90;;;;;;5093859;28;19916;-68
2022/03/28 06:47:17;;;;;;;;;;;5.80;99.90;;;;;;5093519;28;19927;-68
2022/03/28 06:49:43;;;;;;;;;;;5.80;99.90;;;;;;5093238;28;19961;-68
2022/03/28 06:52:09;;;;;;;;;;;5.90;99.90;;;;;;5093530;28;19922;-67
2022/03/28 06:54:35;;;;;;;;;;;5.80;99.90;;;;;;5099255;28;20268;-68
2022/03/28 06:57:02;;;;;;;;;;;5.90;99.90;;;;;;5102956;28;19980;-68
2022/03/28 06:59:29;;;;;;;;;;;5.90;99.90;;;;;;5102692;28;19955;-68
2022/03/28 07:01:55;;;;;;;;;;;5.90;99.90;;;;;;5113914;28;19915;-68
2022/03/28 07:04:21;;;;;;;;;;;6.00;99.90;;;;;;5113708;27;19924;-68
2022/03/28 07:06:48;;;;;;;;;;;5.90;99.90;;;;;;5113644;28;19968;-68
2022/03/28 07:09:13;;;;;;;;;;;6.00;99.90;;;;;;5113423;28;19968;-68
2022/03/28 07:11:38;;;;;;;;;;;6.00;99.90;;;;;;5113827;28;19916;-67
2022/03/28 07:14:04;;;;;;;;;;;6.00;99.90;;;;;;5113654;28;19923;-68
2022/03/28 07:16:29;;;;;;;;;;;6.10;99.90;;;;;;5113529;28;19932;-69
2022/03/28 07:18:55;;;;;;;;;;;6.10;99.90;;;;;;5113013;28;19932;-68
2022/03/28 07:21:20;;;;;;;;;;;6.00;99.90;;;;;;5113299;28;19970;-66
2022/03/28 07:23:48;;;;;;;;;;;6.50;99.90;;;;;;5113269;28;19916;-67
2022/03/28 07:26:14;;;;;;;;;;;7.00;99.90;;;;;;5112583;28;20348;-67
2022/03/28 07:28:39;;;;;;;;;;;7.70;99.90;;;;;;5111233;28;19962;-68
2022/03/28 07:31:08;;;;;;;;;;;7.00;99.90;;;;;;5113404;28;20425;-67
2022/03/28 07:33:33;;;;;;;;;;;6.70;99.90;;;;;;5113182;28;19915;-69
2022/03/28 07:35:59;;;;;;;;;;;6.70;99.90;;;;;;5113059;28;20291;-67
2022/03/28 07:38:24;;;;;;;;;;;6.60;99.90;;;;;;5112708;27;19959;-67
2022/03/28 07:40:50;;;;;;;;;;;6.40;99.90;;;;;;5111683;28;19919;-69
2022/03/28 07:43:15;;;;;;;;;;;6.40;99.90;;;;;;5111700;28;19920;-68
2022/03/28 07:45:41;;;;;;;;;;;6.40;99.90;;;;;;5111164;27;19919;-66
2022/03/28 07:48:07;;;;;;;;;;;6.20;99.90;;;;;;5112697;28;19965;-67
2022/03/28 07:50:32;;;;;;;;;;;6.20;99.90;;;;;;5112383;27;19915;-67
2022/03/28 07:52:58;;;;;;;;;;;6.20;99.90;;;;;;5113009;28;19923;-67
2022/03/28 07:55:26;;;;;;;;;;;6.20;99.90;;;;;;5112907;28;19916;-67
2022/03/28 07:57:51;;;;;;;;;;;6.20;99.90;;;;;;5112801;28;19919;-67
2022/03/28 08:00:17;;;;;;;;;;;6.20;99.90;;;;;;5112377;28;19923;-66
2022/03/28 08:02:43;;;;;;;;;;;6.30;99.90;;;;;;5112682;28;19922;-67
2022/03/28 08:05:09;;;;;;;;;;;6.30;99.90;;;;;;5112489;28;19930;-67
2022/03/28 08:07:35;;;;;;;;;;;6.30;99.90;;;;;;5112648;28;19919;-66
2022/03/28 08:10:01;;;;;;;;;;;6.30;99.90;;;;;;5112348;28;20383;-68
2022/03/28 08:12:26;;;;;;;;;;;6.30;99.90;;;;;;5112589;28;19955;-67
2022/03/28 08:14:52;;;;;;;;;;;6.30;99.90;;;;;;5112452;28;19916;-67
2022/03/28 08:17:19;;;;;;;;;;;6.30;99.90;;;;;;5112373;28;19998;-67
2022/03/28 08:19:45;;;;;;;;;;;6.30;99.90;;;;;;5111876;28;19916;-67
2022/03/28 08:22:10;;;;;;;;;;;6.40;99.90;;;;;;5112477;28;19919;-67
2022/03/28 08:24:36;;;;;;;;;;;6.50;99.90;;;;;;5112412;28;19961;-67
2022/03/28 08:27:01;;;;;;;;;;;6.50;99.90;;;;;;5112257;28;20398;-67
2022/03/28 08:29:27;;;;;;;;;;;6.50;99.90;;;;;;5094147;28;20010;-67
2022/03/28 08:31:53;;;;;;;;;;;6.50;99.90;;;;;;5091646;28;20322;-67
2022/03/28 08:34:19;;;;;;;;;;;6.60;99.90;;;;;;5091687;28;19920;-68
2022/03/28 08:36:44;;;;;;;;;;;6.50;99.90;;;;;;5091835;28;19942;-67
2022/03/28 08:39:10;;;;;;;;;;;6.50;99.90;;;;;;5091169;28;20019;-67
2022/03/28 08:41:35;;;;;;;;;;;6.50;99.90;;;;;;5091612;28;19927;-69
2022/03/28 08:44:01;;;;;;;;;;;6.30;99.90;;;;;;5091635;28;19920;-67
2022/03/28 08:46:27;;;;;;;;;;;6.40;99.90;;;;;;5091162;28;19966;-67
2022/03/28 08:48:54;;;;;;;;;;;6.50;99.90;;;;;;5091341;28;19924;-67
2022/03/28 08:51:20;;;;;;;;;;;6.50;99.90;;;;;;5091609;28;19916;-68
2022/03/28 08:53:46;;;;;;;;;;;6.50;99.90;;;;;;5091577;28;19924;-68
2022/03/28 08:56:12;;;;;;;;;;;6.50;99.90;;;;;;5091427;28;19916;-68
2022/03/28 08:58:37;;;;;;;;;;;6.50;99.90;;;;;;5090163;28;19923;-66
2022/03/28 09:01:04;;;;;;;;;;;6.50;99.90;;;;;;5091427;28;20376;-67
2022/03/28 09:03:37;;;;;;;;;;;6.60;99.90;;;;;;5091574;28;19923;-67
2022/03/28 09:06:22;;;;;;;;;;;6.70;99.90;;;;;;5091360;28;20013;-69
2022/03/28 09:08:48;;;;;;;;;;;6.70;99.90;;;;;;5090927;28;20466;-67
2022/03/28 09:11:20;;;;;;;;;;;6.80;99.90;;;;;;5091551;28;19963;-67
2022/03/28 09:13:46;;;;;;;;;;;6.80;99.90;;;;;;5091255;28;19919;-68
2022/03/28 09:16:17;;;;;;;;;;;6.70;99.90;;;;;;5091828;28;19927;-67
2022/03/28 09:18:43;;;;;;;;;;;6.70;99.90;;;;;;5090920;28;19923;-68
2022/03/28 09:21:11;;;;;;;;;;;6.80;99.90;;;;;;5091168;28;20054;-70
2022/03/28 09:23:41;;;;;;;;;;;6.80;99.90;;;;;;5091402;28;19923;-69
2022/03/28 09:26:06;;;;;;;;;;;6.90;99.90;;;;;;5100270;28;19924;-69
2022/03/28 09:28:38;;;;;;;;;;;6.90;99.90;;;;;;5101717;28;19927;-69
2022/03/28 09:31:16;;;;;;;;;;;6.90;99.90;;;;;;5091203;28;19916;-69
2022/03/28 09:33:51;;;;;;;;;;;6.90;99.90;;;;;;5091117;28;19920;-69
2022/03/28 09:36:17;;;;;;;;;;;6.90;99.90;;;;;;5089807;28;19916;-69
2022/03/28 09:38:55;;;;;;;;;;;7.00;99.90;;;;;;5090706;28;19916;-70
2022/03/28 09:41:24;;;;;;;;;;;7.00;99.90;;;;;;5089928;28;19940;-69
2022/03/28 09:43:54;;;;;;;;;;;7.00;99.90;;;;;;5090976;28;20387;-69
2022/03/28 09:46:30;;;;;;;;;;;7.00;99.90;;;;;;5091114;28;19916;-70
2022/03/28 09:48:57;;;;;;;;;;;7.10;99.90;;;;;;5089309;28;20001;-70
2022/03/28 09:51:25;;;;;;;;;;;7.10;99.90;;;;;;5092785;28;19916;-69
2022/03/28 09:53:51;;;;;;;;;;;7.10;99.90;;;;;;5093493;28;19924;-69
2022/03/28 09:56:16;;;;;;;;;;;7.20;99.90;;;;;;5093357;28;19916;-69
2022/03/28 09:58:46;;;;;;;;;;;7.30;99.90;;;;;;5094729;28;20299;-69
2022/03/28 10:01:11;;;;;;;;;;;7.20;99.90;;;;;;5094709;28;20395;-69
2022/03/28 10:03:37;;;;;;;;;;;7.30;99.90;;;;;;5095741;28;19923;-69
2022/03/28 10:06:03;;;;;;;;;;;7.20;99.90;;;;;;5097697;28;19915;-70
2022/03/28 10:08:29;;;;;;;;;;;7.30;99.90;;;;;;5095552;28;20375;-69
2022/03/28 10:10:56;;;;;;;;;;;7.30;99.90;;;;;;5096808;28;19931;-70
2022/03/28 10:13:21;;;;;;;;;;;7.30;99.90;;;;;;5095460;28;19919;-69
2022/03/28 10:15:47;;;;;;;;;;;7.40;99.90;;;;;;5093534;28;20005;-69
2022/03/28 10:18:13;;;;;;;;;;;7.50;99.90;;;;;;5094432;28;19916;-69
2022/03/28 10:20:40;;;;;;;;;;;7.50;99.90;;;;;;5093950;28;19916;-69
2022/03/28 10:23:06;;;;;;;;;;;7.50;99.90;;;;;;5094203;28;20379;-69
2022/03/28 10:25:32;;;;;;;;;;;7.50;99.90;;;;;;5094114;28;20022;-69
2022/03/28 10:27:59;;;;;;;;;;;7.50;99.90;;;;;;5094253;28;20670;-69
2022/03/28 10:30:30;;;;;;;;;;;7.40;99.90;;;;;;5093876;28;19960;-68
2022/03/28 10:33:09;;;;;;;;;;;7.50;99.90;;;;;;5094075;28;19920;-67
2022/03/28 10:35:35;;;;;;;;;;;7.50;99.90;;;;;;5092705;28;19931;-68
2022/03/28 10:38:13;;;;;;;;;;;7.60;99.90;;;;;;5093852;28;20320;-67
2022/03/28 10:40:51;;;;;;;;;;;7.60;99.90;;;;;;5093750;28;19916;-67
2022/03/28 10:43:17;;;;;;;;;;;7.70;99.90;;;;;;5093781;28;19927;-68
2022/03/28 10:45:53;;;;;;;;;;;7.70;99.90;;;;;;5093205;28;19916;-67
2022/03/28 10:48:39;;;;;;;;;;;7.80;99.90;;;;;;5093427;28;19920;-68
2022/03/28 10:51:06;;;;;;;;;;;7.70;99.90;;;;;;5093111;28;19923;-67
2022/03/28 10:53:47;;;;;;;;;;;7.70;99.90;;;;;;5093477;28;19926;-67
2022/03/28 10:56:17;;;;;;;;;;;7.70;99.90;;;;;;5093712;28;19969;-66
2022/03/28 10:58:44;;;;;;;;;;;7.70;99.90;;;;;;5093318;28;20135;-67
2022/03/28 11:01:13;;;;;;;;;;;7.90;99.90;;;;;;5091893;28;20368;-67
2022/03/28 11:03:42;;;;;;;;;;;7.90;99.90;;;;;;5093461;28;19915;-67
2022/03/28 11:06:08;;;;;;;;;;;8.00;99.90;;;;;;5093348;28;19916;-67
2022/03/28 11:08:36;;;;;;;;;;;8.00;99.90;;;;;;5093149;28;19965;-67
2022/03/28 11:11:15;;;;;;;;;;;8.20;99.90;;;;;;5104559;28;20306;-68
2022/03/28 11:13:41;;;;;;;;;;;8.20;99.90;;;;;;5104214;28;19964;-67
2022/03/28 11:16:15;;;;;;;;;;;8.30;99.90;;;;;;5102766;28;19916;-67
2022/03/28 11:18:41;;;;;;;;;;;8.30;99.90;;;;;;5101558;28;19930;-67
2022/03/28 11:21:09;;;;;;;;;;;8.40;99.90;;;;;;5092619;28;20041;-67
2022/03/28 11:23:37;;;;;;;;;;;8.50;99.90;;;;;;5113745;28;20006;-67
2022/03/28 11:26:03;;;;;;;;;;;8.50;99.90;;;;;;5108317;28;19923;-67
2022/03/28 11:28:29;;;;;;;;;;;8.60;99.90;;;;;;5099634;28;19959;-67
2022/03/28 11:31:08;;;;;;;;;;;8.60;99.90;;;;;;5100221;28;20306;-67
2022/03/28 11:33:38;;;;;;;;;;;8.70;99.90;;;;;;5124665;28;19925;-70
2022/03/28 11:36:14;;;;;;;;;;;8.70;99.90;;;;;;5115661;28;19923;-69
2022/03/28 11:38:41;;;;;;;;;;;8.80;99.90;;;;;;5112797;28;19922;-69
2022/03/28 11:41:07;;;;;;;;;;;8.80;99.90;;;;;;5113200;28;19968;-69
2022/03/28 11:43:35;;;;;;;;;;;8.80;99.90;;;;;;5112922;28;20287;-70
2022/03/28 11:46:02;;;;;;;;;;;8.80;99.90;;;;;;5111382;28;19919;-70
2022/03/28 11:48:27;;;;;;;;;;;9.10;99.90;;;;;;5112509;28;19958;-70
2022/03/28 11:50:55;;;;;;;;;;;9.30;99.90;;;;;;5112849;28;19977;-70
2022/03/28 11:53:20;;;;;;;;;;;9.40;99.90;;;;;;5111556;28;20034;-70
2022/03/28 11:55:54;;;;;;;;;;;9.30;99.90;;;;;;5112730;28;20014;-69
2022/03/28 11:58:28;;;;;;;;;;;9.40;99.90;;;;;;5112836;28;19941;-69
2022/03/28 12:01:02;;;;;;;;;;;9.40;99.90;;;;;;5112564;28;20332;-70
2022/03/28 12:03:27;;;;;;;;;;;9.40;99.90;;;;;;5112677;28;19916;-70
2022/03/28 12:05:53;;;;;;;;;;;9.40;99.90;;;;;;5112560;28;19916;-69
2022/03/28 12:08:18;;;;;;;;;;;9.50;99.90;;;;;;5112272;28;19978;-69
2022/03/28 12:10:49;;;;;;;;;;;9.50;99.90;;;;;;5111011;28;19915;-69
2022/03/28 12:13:15;;;;;;;;;;;9.40;99.90;;;;;;5112001;28;19916;-69
2022/03/28 12:15:47;;;;;;;;;;;9.50;99.90;;;;;;5111388;28;19927;-69
2022/03/28 12:18:17;;;;;;;;;;;9.70;99.90;;;;;;5111116;28;19922;-69
2022/03/28 12:20:44;;;;;;;;;;;9.60;99.90;;;;;;5112039;28;19983;-69
2022/03/28 12:23:12;;;;;;;;;;;9.60;99.90;;;;;;5112280;28;20349;-70
2022/03/28 12:25:39;;;;;;;;;;;9.80;99.90;;;;;;5112538;28;19977;-69
2022/03/28 12:28:05;;;;;;;;;;;9.80;99.90;;;;;;5112290;28;19920;-69
2022/03/28 12:30:33;;;;;;;;;;;9.90;99.90;;;;;;5111920;28;20328;-69
2022/03/28 12:33:02;;;;;;;;;;;10.00;99.90;;;;;;5112130;28;19915;-70
2022/03/28 12:35:28;;;;;;;;;;;10.00;99.90;;;;;;5112129;28;20452;-70
2022/03/28 12:38:00;;;;;;;;;;;10.10;99.90;;;;;;5112292;28;19916;-69
2022/03/28 12:40:26;;;;;;;;;;;10.20;99.90;;;;;;5111816;28;19927;-69
2022/03/28 12:42:52;;;;;;;;;;;10.10;99.90;;;;;;5112037;28;20390;-70
2022/03/28 12:45:17;;;;;;;;;;;10.20;99.90;;;;;;5112008;28;20010;-70
2022/03/28 12:47:53;;;;;;;;;;;10.20;99.90;;;;;;5111786;28;20402;-70
2022/03/28 12:50:19;;;;;;;;;;;10.30;99.90;;;;;;5111824;28;19915;-70
2022/03/28 12:52:44;;;;;;;;;;;10.40;99.90;;;;;;5111893;28;19916;-70
2022/03/28 12:55:10;;;;;;;;;;;10.40;99.90;;;;;;5111822;28;19923;-70
2022/03/28 12:57:37;;;;;;;;;;;10.40;99.90;;;;;;5111997;28;19920;-69
2022/03/28 13:00:03;;;;;;;;;;;10.50;99.90;;;;;;5111578;28;20053;-70
2022/03/28 13:02:28;;;;;;;;;;;10.50;99.90;;;;;;5111876;28;20019;-69
2022/03/28 13:04:57;;;;;;;;;;;10.50;99.90;;;;;;5112089;28;20057;-70
2022/03/28 13:07:28;;;;;;;;;;;10.60;99.90;;;;;;5111735;28;19933;-70
2022/03/28 13:09:55;;;;;;;;;;;10.70;99.90;;;;;;5111565;28;19916;-67
2022/03/28 13:12:31;;;;;;;;;;;10.80;99.90;;;;;;5111806;28;20383;-67
2022/03/28 13:14:56;;;;;;;;;;;10.80;99.90;;;;;;5111633;28;20006;-67
2022/03/28 13:17:22;;;;;;;;;;;10.80;99.90;;;;;;5111685;28;19999;-67
2022/03/28 13:19:55;;;;;;;;;;;10.90;99.90;;;;;;5111424;28;19923;-68
2022/03/28 13:22:25;;;;;;;;;;;11.00;99.90;;;;;;5105657;28;19916;-68
2022/03/28 13:25:04;;;;;;;;;;;11.00;99.90;;;;;;5102649;28;19984;-68
2022/03/28 13:30:17;;;;;;;;;;;10.90;99.90;;;;;;5104861;28;19967;-67
2022/03/28 13:32:43;;;;;;;;;;;11.10;99.90;;;;;;5103831;28;19931;-66
2022/03/28 13:35:08;;;;;;;;;;;11.20;99.90;;;;;;5104699;28;19917;-68
2022/03/28 13:37:34;;;;;;;;;;;11.20;99.90;;;;;;5105091;28;19922;-67
2022/03/28 13:39:59;;;;;;;;;;;11.20;99.90;;;;;;5111131;28;19973;-68
2022/03/28 13:42:26;;;;;;;;;;;11.20;99.90;;;;;;5115677;28;19925;-67
2022/03/28 13:44:51;;;;;;;;;;;11.30;99.90;;;;;;5115488;28;19927;-67
2022/03/28 13:47:17;;;;;;;;;;;11.40;99.90;;;;;;5113392;28;19980;-67
2022/03/28 13:49:42;;;;;;;;;;;11.40;99.90;;;;;;5115037;28;19958;-67
2022/03/28 13:52:08;;;;;;;;;;;11.40;99.90;;;;;;5115359;28;19916;-67
2022/03/28 13:54:33;;;;;;;;;;;11.50;99.90;;;;;;5115210;28;20299;-67
2022/03/28 13:56:59;;;;;;;;;;;11.50;99.90;;;;;;5113882;28;19915;-67
2022/03/28 13:59:24;;;;;;;;;;;11.50;99.90;;;;;;5114741;28;19915;-68
2022/03/28 14:01:50;;;;;;;;;;;11.60;99.90;;;;;;5114993;28;20006;-67
2022/03/28 14:04:16;;;;;;;;;;;11.70;99.90;;;;;;5114962;28;19919;-67
2022/03/28 14:06:42;;;;;;;;;;;11.70;99.90;;;;;;5115075;28;20340;-67
2022/03/28 14:09:09;;;;;;;;;;;11.70;99.90;;;;;;5114555;28;20010;-67
2022/03/28 14:11:35;;;;;;;;;;;11.70;99.90;;;;;;5115013;28;19976;-69
2022/03/28 14:14:00;;;;;;;;;;;11.80;99.90;;;;;;5114841;28;20666;-67
2022/03/28 14:16:26;;;;;;;;;;;11.80;99.90;;;;;;5114839;28;19977;-67
2022/03/28 14:18:54;;;;;;;;;;;11.80;99.90;;;;;;5113297;28;20010;-67
2022/03/28 14:21:20;;;;;;;;;;;11.90;99.90;;;;;;5114723;28;20321;-67
2022/03/28 14:23:45;;;;;;;;;;;11.90;99.90;;;;;;5114791;28;19930;-67
2022/03/28 14:26:13;;;;;;;;;;;11.90;99.90;;;;;;5114698;28;20007;-67
2022/03/28 14:28:39;;;;;;;;;;;12.00;99.90;;;;;;5114215;28;20012;-67
2022/03/28 14:31:04;;;;;;;;;;;12.10;99.90;;;;;;5114484;28;19966;-67